Terminal Aerodrome Forecast
Issued by NWS

Home | Current Version | Previous Version | Text Only | Print | Product List | Glossary On
Versions: 1 2 3 4 5 6 7 8 9 10 11 12 13 14 15 16 17 18 19 20 21
167
FTUS43 KEAX 211412 AAA
TAFSTJ
TAF AMD
KSTJ 211412Z 2114/2212 VRB04KT 1SM BR OVC002
     FM211600 21008KT 4SM BR SCT200
      TEMPO 2116/2118 BKN003
     FM211900 21007KT P6SM BKN200
     FM220000 VRB05KT P6SM OVC070
     FM220300 VRB05KT 5SM BR VCSH OVC035=

USA.gov is the U.S. government's official web portal to all federal, state and local government web resources and services.